PAKV Airport Information

Runway Information
Runway 03 Length 3986 ft width 100 ft
Elevation 177 ft Threshold 0 ft Heading 47
Runway 21 Length 3986 ft Width 100 ft
Elevation 177 ft Threshold 0 ft Heading 227
Airport Frequencies
Airport Navaids
Airport Weather Information & NOTAM
ADDS - METARS form results

(0846 UTC 24 April 2018)
 
METAR text: PAKV 240753Z AUTO 00000KT 10SM -RA OVC017 03/02 A2949 RMK AO2 SLP989 P0005 T00330022 TSNO
Conditions at: PAKV (KALTAG , AK, US) observed 0753 UTC 24 April 2018
Temperature: 3.3°C (38°F)
Dewpoint: 2.2°C (36°F) [RH = 92%]
Pressure (altimeter): 29.49 inches Hg (998.7 mb)
[Sea-level pressure: 998.9 mb]
Winds: calm
Visibility: 10 or more miles (16+ km)
Ceiling: 1700 feet AGL
Clouds: overcast cloud deck at 1700 feet AGL
Weather: -RA  (light rain)